createdAt,value
2022-12-09T00:00:10.713Z,88.85
2022-12-09T00:02:39.439Z,90.02
2022-12-09T00:05:08.688Z,90.41
2022-12-09T00:07:37.413Z,89.09
2022-12-09T00:10:07.928Z,90.20
2022-12-09T00:12:37.928Z,90.43
2022-12-09T00:15:07.231Z,90.41
2022-12-09T00:17:35.690Z,89.68
2022-12-09T00:20:05.423Z,89.33
2022-12-09T00:22:34.181Z,90.09
2022-12-09T00:25:02.403Z,90.44
2022-12-09T00:27:30.661Z,89.04
2022-12-09T00:30:01.140Z,90.04
2022-12-09T00:32:30.133Z,90.86
2022-12-09T00:34:58.489Z,89.65
2022-12-09T00:37:26.859Z,90.65
2022-12-09T00:39:55.086Z,89.57
2022-12-09T00:42:23.665Z,89.75
2022-12-09T00:44:52.093Z,88.77
2022-12-09T00:47:22.349Z,89.01
2022-12-09T00:49:50.873Z,88.70
2022-12-09T00:52:19.093Z,89.76
2022-12-09T00:54:47.423Z,90.84
2022-12-09T00:57:15.744Z,91.23
2022-12-09T00:59:44.053Z,89.48
2022-12-09T01:02:12.558Z,89.10
2022-12-09T01:04:42.480Z,88.57
2022-12-09T01:07:11.799Z,89.63
2022-12-09T01:09:41.307Z,89.09
2022-12-09T01:12:09.706Z,88.95
2022-12-09T01:14:37.892Z,89.87
2022-12-09T01:17:06.300Z,88.24
2022-12-09T01:19:35.081Z,89.92
2022-12-09T01:22:05.163Z,89.67
2022-12-09T01:24:33.707Z,90.63
2022-12-09T01:27:01.924Z,89.12
2022-12-09T01:29:30.416Z,89.56
2022-12-09T01:32:01.070Z,90.57
2022-12-09T01:34:57.693Z,90.18
2022-12-09T01:37:27.665Z,88.64
2022-12-09T01:39:56.369Z,89.83
2022-12-09T01:42:27.770Z,90.04
2022-12-09T01:45:40.139Z,89.48
2022-12-09T01:48:14.225Z,91.63
2022-12-09T01:50:51.041Z,90.63
2022-12-09T01:53:26.151Z,89.08
2022-12-09T01:55:56.347Z,89.58
2022-12-09T01:58:25.429Z,91.28
2022-12-09T02:00:53.884Z,92.42
2022-12-09T02:03:23.243Z,91.39
2022-12-09T02:05:52.307Z,91.59
2022-12-09T02:08:22.061Z,90.60
2022-12-09T02:11:04.939Z,91.13
2022-12-09T02:13:49.063Z,90.62
2022-12-09T02:16:22.696Z,91.54
2022-12-09T02:18:59.042Z,89.79
2022-12-09T02:21:35.525Z,90.56
2022-12-09T02:24:14.692Z,89.23
2022-12-09T02:26:51.804Z,90.70
2022-12-09T02:30:01.894Z,90.12
2022-12-09T02:33:07.464Z,88.46
2022-12-09T02:35:45.079Z,88.61
2022-12-09T02:38:17.586Z,89.88
2022-12-09T02:40:52.277Z,89.41
2022-12-09T02:43:26.036Z,90.15
2022-12-09T02:45:57.940Z,88.98
2022-12-09T02:48:33.983Z,89.00
2022-12-09T02:51:07.362Z,87.86
2022-12-09T02:53:38.780Z,88.51
2022-12-09T02:56:09.655Z,88.75
2022-12-09T02:58:38.041Z,87.89
2022-12-09T03:01:07.368Z,88.49
2022-12-09T03:03:37.352Z,88.96
2022-12-09T03:06:10.488Z,88.11
2022-12-09T03:08:49.019Z,88.25
2022-12-09T03:11:20.663Z,89.06
2022-12-09T03:13:57.093Z,89.26
2022-12-09T03:16:32.692Z,88.51
2022-12-09T03:19:06.180Z,89.05
2022-12-09T03:21:40.040Z,87.43
2022-12-09T03:24:12.120Z,87.76
2022-12-09T03:26:41.766Z,87.89
2022-12-09T03:29:16.913Z,88.24
2022-12-09T03:31:47.797Z,87.76
2022-12-09T03:34:19.571Z,88.90
2022-12-09T03:36:53.192Z,89.37
2022-12-09T03:39:25.284Z,88.25
2022-12-09T03:41:58.480Z,89.28
2022-12-09T03:44:36.302Z,90.82
2022-12-09T03:47:05.508Z,89.36
2022-12-09T03:49:34.492Z,90.08
2022-12-09T03:52:11.381Z,89.11
2022-12-09T03:54:46.013Z,89.68
2022-12-09T03:57:19.829Z,88.69
2022-12-09T03:59:55.259Z,89.45
2022-12-09T04:02:24.022Z,88.82
2022-12-09T04:04:53.271Z,86.99
2022-12-09T04:07:23.461Z,86.97
2022-12-09T04:09:52.075Z,87.03
2022-12-09T04:12:20.544Z,87.35
2022-12-09T04:14:49.101Z,87.45
2022-12-09T04:17:17.683Z,86.68
2022-12-09T04:19:46.645Z,88.64
2022-12-09T04:22:15.638Z,88.30
2022-12-09T04:24:45.399Z,87.87
2022-12-09T04:27:13.869Z,85.75
2022-12-09T04:29:42.270Z,86.01
2022-12-09T04:32:11.014Z,86.49
2022-12-09T04:34:39.474Z,87.54
2022-12-09T04:37:08.105Z,88.73
2022-12-09T04:39:36.718Z,88.46
2022-12-09T04:42:06.481Z,87.48
2022-12-09T04:44:35.749Z,88.50
2022-12-09T04:47:04.673Z,88.86
2022-12-09T04:49:33.575Z,88.09
2022-12-09T04:52:01.836Z,90.19
2022-12-09T04:54:30.336Z,90.71
2022-12-09T04:56:58.602Z,89.44
2022-12-09T04:59:30.207Z,89.42
2022-12-09T05:02:23.973Z,89.97
2022-12-09T05:04:56.842Z,90.43
2022-12-09T05:07:26.140Z,91.06
2022-12-09T05:09:54.680Z,92.22
2022-12-09T05:12:23.138Z,91.88
2022-12-09T05:14:53.429Z,92.10
2022-12-09T05:17:22.097Z,90.19
2022-12-09T05:19:50.799Z,88.95
2022-12-09T05:22:20.052Z,89.01
2022-12-09T05:24:48.700Z,87.84
2022-12-09T05:27:17.497Z,87.61
2022-12-09T05:29:46.970Z,88.08
2022-12-09T05:32:16.888Z,88.21
2022-12-09T05:34:45.837Z,88.57
2022-12-09T05:37:16.106Z,88.79
2022-12-09T05:39:44.359Z,87.71
2022-12-09T05:42:13.269Z,89.41
2022-12-09T05:44:41.695Z,89.26
2022-12-09T05:47:10.145Z,89.11
2022-12-09T05:49:40.684Z,90.40
2022-12-09T05:52:10.400Z,89.41
2022-12-09T05:54:39.407Z,90.72
2022-12-09T05:57:08.192Z,90.10
2022-12-09T05:59:36.702Z,91.19
2022-12-09T06:02:09.746Z,90.94
2022-12-09T06:04:40.173Z,92.49
2022-12-09T06:07:08.727Z,91.36
2022-12-09T06:09:37.225Z,92.12
2022-12-09T06:12:06.634Z,92.64
2022-12-09T06:14:34.928Z,93.04
2022-12-09T06:17:03.793Z,90.94
2022-12-09T06:19:32.565Z,90.94
2022-12-09T06:22:02.687Z,92.33
2022-12-09T06:24:31.401Z,90.99
2022-12-09T06:26:59.729Z,90.52
2022-12-09T06:29:28.231Z,91.75
2022-12-09T06:31:56.895Z,90.61
2022-12-09T06:34:26.119Z,91.17
2022-12-09T06:36:54.812Z,91.39
2022-12-09T06:39:24.637Z,90.71
2022-12-09T06:41:53.333Z,90.00
2022-12-09T06:44:23.800Z,91.86
2022-12-09T06:46:53.178Z,92.05
2022-12-09T06:49:21.653Z,91.95
2022-12-09T06:51:50.622Z,92.62
2022-12-09T06:54:19.317Z,91.47
2022-12-09T06:56:49.196Z,91.69
2022-12-09T06:59:18.212Z,91.60
2022-12-09T07:01:47.760Z,91.51
2022-12-09T07:04:16.920Z,89.88
2022-12-09T07:06:48.864Z,90.59
2022-12-09T07:09:20.983Z,89.91
2022-12-09T07:11:51.583Z,91.02
2022-12-09T07:14:21.401Z,89.74
2022-12-09T07:16:49.780Z,90.18
2022-12-09T07:19:20.392Z,89.39
2022-12-09T07:21:50.219Z,90.35
2022-12-09T07:24:20.260Z,89.64
2022-12-09T07:26:51.454Z,90.45
2022-12-09T07:29:20.253Z,91.15
2022-12-09T07:31:49.487Z,91.25
2022-12-09T07:34:18.770Z,90.70
2022-12-09T07:36:47.557Z,90.49
2022-12-09T07:39:19.263Z,89.75
2022-12-09T07:41:48.632Z,89.30
2022-12-09T07:44:18.834Z,89.46
2022-12-09T07:46:47.827Z,88.84
2022-12-09T07:49:16.763Z,89.86
2022-12-09T07:51:45.886Z,89.24
2022-12-09T07:54:16.422Z,89.71
2022-12-09T07:56:45.544Z,89.21
2022-12-09T07:59:16.102Z,88.90
2022-12-09T08:01:46.723Z,89.12
2022-12-09T08:04:15.424Z,88.68
2022-12-09T08:06:44.593Z,89.00
2022-12-09T08:09:14.993Z,88.26
2022-12-09T08:11:43.828Z,89.31
2022-12-09T08:14:14.127Z,90.35
2022-12-09T08:16:43.803Z,89.06
2022-12-09T08:19:14.554Z,88.48
2022-12-09T08:21:43.437Z,89.66
2022-12-09T08:24:13.782Z,90.15
2022-12-09T08:26:43.102Z,90.03
2022-12-09T08:29:14.357Z,89.84
2022-12-09T08:31:44.634Z,89.32
2022-12-09T08:34:16.346Z,90.26
2022-12-09T08:36:45.941Z,89.59
2022-12-09T08:39:15.815Z,89.68
2022-12-09T08:41:44.815Z,90.20
2022-12-09T08:44:15.522Z,90.14
2022-12-09T08:46:48.604Z,91.21
2022-12-09T08:49:22.100Z,90.92
2022-12-09T08:51:54.545Z,91.59
2022-12-09T08:54:23.406Z,91.62
2022-12-09T08:56:56.972Z,91.99
2022-12-09T08:59:25.635Z,92.13
2022-12-09T09:01:54.773Z,92.16
2022-12-09T09:04:29.062Z,92.43
2022-12-09T09:07:06.473Z,92.58
2022-12-09T09:09:35.560Z,92.33
2022-12-09T09:12:04.740Z,92.01
2022-12-09T09:14:33.501Z,91.82
2022-12-09T09:17:02.095Z,93.30
2022-12-09T09:19:32.652Z,92.84
2022-12-09T09:22:01.338Z,94.02
2022-12-09T09:24:29.639Z,93.41
2022-12-09T09:26:58.202Z,93.84
2022-12-09T09:29:26.478Z,92.31
2022-12-09T09:31:55.381Z,93.69
2022-12-09T09:34:26.153Z,93.49
2022-12-09T09:36:57.014Z,92.54
2022-12-09T09:39:26.572Z,93.14
2022-12-09T09:42:04.439Z,93.87
2022-12-09T09:44:41.171Z,94.08
2022-12-09T09:47:19.681Z,94.32
2022-12-09T09:49:55.323Z,93.85
2022-12-09T09:52:28.982Z,93.95
2022-12-09T09:54:57.909Z,94.34
2022-12-09T09:57:34.621Z,93.63
2022-12-09T10:00:16.089Z,93.51
2022-12-09T10:03:01.227Z,94.13
2022-12-09T10:05:34.301Z,93.53
2022-12-09T10:08:28.920Z,93.03
2022-12-09T10:11:13.049Z,93.05
2022-12-09T10:13:52.794Z,93.21
2022-12-09T10:16:28.164Z,92.86
2022-12-09T10:19:09.665Z,92.64
2022-12-09T10:21:44.293Z,92.67
2022-12-09T10:24:24.213Z,92.97
2022-12-09T10:27:11.121Z,92.97
2022-12-09T10:29:56.933Z,92.52
2022-12-09T10:32:28.838Z,92.63
2022-12-09T10:34:58.185Z,92.77
2022-12-09T10:37:31.452Z,92.24
2022-12-09T10:40:22.290Z,93.05
2022-12-09T10:43:10.370Z,92.61
2022-12-09T10:46:16.789Z,92.97
2022-12-09T10:48:38.932Z,92.46
2022-12-09T10:51:14.458Z,92.87
2022-12-09T10:53:48.946Z,93.12
2022-12-09T10:56:27.431Z,92.23
2022-12-09T10:59:12.784Z,92.34
2022-12-09T11:01:51.600Z,92.27
2022-12-09T11:04:28.694Z,92.83
2022-12-09T11:07:19.814Z,92.60
2022-12-09T11:09:51.082Z,92.83
2022-12-09T11:12:40.212Z,93.46
2022-12-09T11:15:36.042Z,92.86
2022-12-09T11:18:08.964Z,92.60
2022-12-09T11:20:37.823Z,92.68
2022-12-09T11:23:16.101Z,92.66
2022-12-09T11:25:54.787Z,92.46
2022-12-09T11:28:30.525Z,93.34
2022-12-09T11:33:54.777Z,92.71
2022-12-09T11:36:30.667Z,92.36
2022-12-09T11:39:20.815Z,92.05
2022-12-09T11:42:16.425Z,92.13
2022-12-09T11:44:56.536Z,92.16
2022-12-09T11:47:50.463Z,91.95
2022-12-09T11:50:23.868Z,91.42
2022-12-09T11:53:25.463Z,92.11
2022-12-09T11:55:58.569Z,92.31
2022-12-09T11:58:30.311Z,91.61
2022-12-09T12:01:06.393Z,91.05
2022-12-09T12:03:41.423Z,90.46
2022-12-09T12:06:19.333Z,90.27
2022-12-09T12:08:53.575Z,90.98
2022-12-09T12:11:33.720Z,89.46
2022-12-09T12:14:11.264Z,88.78
2022-12-09T12:16:52.297Z,89.64
2022-12-09T12:19:26.573Z,89.87
2022-12-09T12:22:26.345Z,89.54
2022-12-09T12:25:23.062Z,90.75
2022-12-09T12:28:26.556Z,91.06
2022-12-09T12:31:04.070Z,90.20
2022-12-09T12:34:23.457Z,90.81
2022-12-09T12:36:57.308Z,89.88
2022-12-09T12:39:49.265Z,89.71
2022-12-09T12:42:36.000Z,90.13
2022-12-09T12:45:32.193Z,90.33
2022-12-09T12:48:07.124Z,89.67
2022-12-09T12:50:57.705Z,89.82
2022-12-09T12:53:37.842Z,88.93
2022-12-09T12:56:10.364Z,89.01
2022-12-09T12:58:57.671Z,89.29
2022-12-09T13:01:31.196Z,89.03
2022-12-09T13:04:14.200Z,88.90
2022-12-09T13:06:53.366Z,88.72
2022-12-09T13:09:32.395Z,89.12
2022-12-09T13:12:09.008Z,89.39
2022-12-09T13:14:51.773Z,88.92
2022-12-09T13:17:22.103Z,89.18
2022-12-09T13:19:53.424Z,88.61
2022-12-09T13:22:28.288Z,89.23
2022-12-09T13:25:04.487Z,89.15
2022-12-09T13:27:42.220Z,88.32
2022-12-09T13:30:31.907Z,88.78
2022-12-09T13:33:32.382Z,87.96
2022-12-09T13:36:07.406Z,88.01
2022-12-09T13:38:40.768Z,87.42
2022-12-09T13:42:03.375Z,87.92
2022-12-09T13:44:37.766Z,86.93
2022-12-09T13:47:28.826Z,86.51
2022-12-09T13:50:03.668Z,86.18
2022-12-09T13:52:58.571Z,85.99
2022-12-09T13:55:37.839Z,85.63
2022-12-09T13:58:32.145Z,85.17
2022-12-09T14:01:07.627Z,85.38
2022-12-09T14:03:41.167Z,85.36
2022-12-09T14:06:24.103Z,84.12
2022-12-09T14:08:56.567Z,84.52
2022-12-09T14:11:50.462Z,84.79
2022-12-09T14:14:54.664Z,83.90
2022-12-09T14:18:01.020Z,83.32
2022-12-09T14:20:39.947Z,85.02
2022-12-09T14:23:18.984Z,84.75
2022-12-09T14:26:01.587Z,84.32
2022-12-09T14:29:01.594Z,84.38
2022-12-09T14:32:00.232Z,84.68
2022-12-09T14:35:23.962Z,84.72
2022-12-09T14:38:18.421Z,84.28
2022-12-09T14:40:59.348Z,83.90
2022-12-09T14:43:52.081Z,84.51
2022-12-09T14:46:27.049Z,84.33
2022-12-09T14:48:59.091Z,85.02
2022-12-09T14:51:35.643Z,85.11
2022-12-09T14:54:08.401Z,84.66
2022-12-09T14:56:36.914Z,84.49
2022-12-09T14:59:10.884Z,84.84
2022-12-09T15:01:53.086Z,85.75
2022-12-09T15:04:34.719Z,85.00
2022-12-09T15:07:17.731Z,84.61
2022-12-09T15:09:55.847Z,84.62
2022-12-09T15:12:30.253Z,85.03
2022-12-09T15:15:05.718Z,84.30
2022-12-09T15:17:42.077Z,84.78
2022-12-09T15:20:26.859Z,84.65
2022-12-09T15:22:59.544Z,84.54
2022-12-09T15:25:28.488Z,84.97
2022-12-09T15:28:02.539Z,84.20
2022-12-09T15:30:35.064Z,83.70
2022-12-09T15:33:14.560Z,83.20
2022-12-09T15:35:48.883Z,83.96
2022-12-09T15:38:17.667Z,83.59
2022-12-09T15:41:02.059Z,83.91
2022-12-09T15:43:31.307Z,84.00
2022-12-09T15:45:59.673Z,84.26
2022-12-09T15:48:35.932Z,84.20
2022-12-09T15:51:29.968Z,84.24
2022-12-09T15:54:01.287Z,84.37
2022-12-09T15:56:34.914Z,84.55
2022-12-09T15:59:09.601Z,85.07
2022-12-09T16:01:38.328Z,84.75
2022-12-09T16:04:10.077Z,84.51
2022-12-09T16:06:39.222Z,86.06
2022-12-09T16:09:14.792Z,86.72
2022-12-09T16:11:45.688Z,86.87
2022-12-09T16:14:14.877Z,88.38
2022-12-09T16:16:48.215Z,88.23
2022-12-09T16:19:36.804Z,88.56
2022-12-09T16:22:09.372Z,89.43
2022-12-09T16:25:13.030Z,90.03
2022-12-09T16:27:38.006Z,89.56
2022-12-09T16:30:23.060Z,89.63
2022-12-09T16:32:53.304Z,90.49
2022-12-09T16:35:26.994Z,90.34
2022-12-09T16:38:17.955Z,90.69
2022-12-09T16:41:14.309Z,90.73
2022-12-09T16:43:58.524Z,91.13
2022-12-09T16:46:38.832Z,90.62
2022-12-09T16:49:08.378Z,90.60
2022-12-09T16:51:39.994Z,90.82
2022-12-09T16:54:20.671Z,90.34
2022-12-09T16:56:51.310Z,90.33
2022-12-09T16:59:20.629Z,90.47
2022-12-09T17:01:49.015Z,90.09
2022-12-09T17:04:25.116Z,90.45
2022-12-09T17:06:56.254Z,90.58
2022-12-09T17:09:24.492Z,90.04
2022-12-09T17:11:52.764Z,89.63
2022-12-09T17:14:21.062Z,89.29
2022-12-09T17:16:49.347Z,88.87
2022-12-09T17:19:22.956Z,89.15
2022-12-09T17:21:52.187Z,89.28
2022-12-09T17:24:21.960Z,88.95
2022-12-09T17:26:50.212Z,89.90
2022-12-09T17:29:18.723Z,89.35
2022-12-09T17:31:49.640Z,89.30
2022-12-09T17:34:18.061Z,89.02
2022-12-09T17:36:46.899Z,89.84
2022-12-09T17:39:15.623Z,89.65
2022-12-09T17:41:45.134Z,89.47
2022-12-09T17:44:13.296Z,89.53
2022-12-09T17:46:41.536Z,89.42
2022-12-09T17:49:09.735Z,89.14
2022-12-09T17:51:38.654Z,88.99
2022-12-09T17:54:07.274Z,88.77
2022-12-09T17:56:35.597Z,88.86
2022-12-09T17:59:09.145Z,88.69
2022-12-09T18:01:40.383Z,88.82
2022-12-09T18:04:11.156Z,89.26
2022-12-09T18:06:41.743Z,89.23
2022-12-09T18:09:11.936Z,89.10
2022-12-09T18:11:40.495Z,88.60
2022-12-09T18:14:16.496Z,88.87
2022-12-09T18:16:46.346Z,88.49
2022-12-09T18:19:17.112Z,87.95
2022-12-09T18:21:46.343Z,88.15
2022-12-09T18:24:14.995Z,88.32
2022-12-09T18:26:43.854Z,88.29
2022-12-09T18:29:14.489Z,88.18
2022-12-09T18:31:45.582Z,88.45
2022-12-09T18:34:14.042Z,88.33
2022-12-09T18:36:42.559Z,88.19
2022-12-09T18:39:10.806Z,88.90
2022-12-09T18:41:40.354Z,87.63
2022-12-09T18:44:13.362Z,88.14
2022-12-09T18:46:46.699Z,88.25
2022-12-09T18:49:17.169Z,88.30
2022-12-09T18:51:46.901Z,88.47
2022-12-09T18:54:18.226Z,88.28
2022-12-09T18:56:46.699Z,87.85
2022-12-09T18:59:16.752Z,88.16
2022-12-09T19:01:47.903Z,87.89
2022-12-09T19:04:24.690Z,88.26
2022-12-09T19:06:57.452Z,87.76
2022-12-09T19:09:30.600Z,87.87
2022-12-09T19:12:16.421Z,88.46
2022-12-09T19:14:49.498Z,88.10
2022-12-09T19:17:18.815Z,87.79
2022-12-09T19:19:47.478Z,87.93
2022-12-09T19:22:15.920Z,87.93
2022-12-09T19:24:44.297Z,88.05
2022-12-09T19:27:13.370Z,88.51
2022-12-09T19:29:41.569Z,87.91
2022-12-09T19:32:36.666Z,88.56
2022-12-09T19:34:59.372Z,88.55
2022-12-09T19:37:27.645Z,88.00
2022-12-09T19:39:55.897Z,88.34
2022-12-09T19:42:24.227Z,87.66
2022-12-09T19:45:01.425Z,88.47
2022-12-09T19:47:31.643Z,87.79
2022-12-09T19:50:01.040Z,88.15
2022-12-09T19:52:29.293Z,88.35
2022-12-09T19:54:57.536Z,88.44
2022-12-09T19:57:27.544Z,88.20
2022-12-09T19:59:57.474Z,87.94
2022-12-09T20:02:25.752Z,88.07
2022-12-09T20:04:55.653Z,87.93
2022-12-09T20:07:23.928Z,87.60
2022-12-09T20:09:52.276Z,88.31
2022-12-09T20:12:20.504Z,87.90
2022-12-09T20:14:48.780Z,88.19
2022-12-09T20:17:17.667Z,87.59
2022-12-09T20:19:45.945Z,87.87
2022-12-09T20:22:15.588Z,87.77
2022-12-09T20:24:44.274Z,87.97
2022-12-09T20:27:12.734Z,87.61
2022-12-09T20:29:40.988Z,87.85
2022-12-09T20:32:10.169Z,87.81
2022-12-09T20:34:38.880Z,87.44
2022-12-09T20:37:07.414Z,88.19
2022-12-09T20:39:37.282Z,87.47
2022-12-09T20:42:05.810Z,87.26
2022-12-09T20:44:34.132Z,87.48
2022-12-09T20:47:02.453Z,87.98
2022-12-09T20:49:31.104Z,88.18
2022-12-09T20:51:59.842Z,88.39
2022-12-09T20:54:28.173Z,88.68
2022-12-09T20:56:57.758Z,88.16
2022-12-09T20:59:26.168Z,88.83
2022-12-09T21:01:58.295Z,88.56
2022-12-09T21:04:26.789Z,88.45
2022-12-09T21:07:23.753Z,88.19
2022-12-09T21:09:52.083Z,88.20
2022-12-09T21:12:21.758Z,87.96
2022-12-09T21:14:50.033Z,88.60
2022-12-09T21:17:18.255Z,87.94
2022-12-09T21:19:46.489Z,88.17
2022-12-09T21:22:14.779Z,87.56
2022-12-09T21:24:43.081Z,87.76
2022-12-09T21:27:11.351Z,87.74
2022-12-09T21:29:40.971Z,87.99
2022-12-09T21:32:09.266Z,88.00
2022-12-09T21:34:37.475Z,87.77
2022-12-09T21:37:05.716Z,87.30
2022-12-09T21:39:33.972Z,87.54
2022-12-09T21:42:02.208Z,87.34
2022-12-09T21:44:30.696Z,87.82
2022-12-09T21:47:00.686Z,86.80
2022-12-09T21:49:30.059Z,87.51
2022-12-09T21:51:58.481Z,87.85
2022-12-09T21:54:26.859Z,87.59
2022-12-09T21:56:55.076Z,88.04
2022-12-09T21:59:23.469Z,87.73
2022-12-09T22:01:52.277Z,88.41
2022-12-09T22:04:22.303Z,87.92
2022-12-09T22:06:52.048Z,88.05
2022-12-09T22:09:21.693Z,87.90
2022-12-09T22:11:50.136Z,88.30
2022-12-09T22:14:18.777Z,88.32
2022-12-09T22:16:47.357Z,87.93
2022-12-09T22:19:19.076Z,88.03
2022-12-09T22:21:49.419Z,88.04
2022-12-09T22:24:19.309Z,87.73
2022-12-09T22:26:47.970Z,87.87
2022-12-09T22:29:18.296Z,88.59
2022-12-09T22:31:47.399Z,88.08
2022-12-09T22:34:18.545Z,88.38
2022-12-09T22:36:48.969Z,87.89
2022-12-09T22:39:19.792Z,88.56
2022-12-09T22:41:48.697Z,88.50
2022-12-09T22:44:20.514Z,89.01
2022-12-09T22:46:49.582Z,88.32
2022-12-09T22:49:18.303Z,88.60
2022-12-09T22:51:48.788Z,88.45
2022-12-09T22:54:17.424Z,88.18
2022-12-09T22:56:45.982Z,88.62
2022-12-09T22:59:15.645Z,88.98
2022-12-09T23:02:12.948Z,88.02
2022-12-09T23:04:47.010Z,88.09
2022-12-09T23:07:17.742Z,87.55
2022-12-09T23:09:45.992Z,87.56
2022-12-09T23:12:14.257Z,87.98
2022-12-09T23:14:42.572Z,88.56
2022-12-09T23:17:10.877Z,88.58
2022-12-09T23:19:39.155Z,88.62
2022-12-09T23:22:08.560Z,88.65
2022-12-09T23:24:38.468Z,88.20
2022-12-09T23:27:06.757Z,88.51
2022-12-09T23:29:35.092Z,88.34
2022-12-09T23:32:03.347Z,87.96
2022-12-09T23:34:31.644Z,88.63
2022-12-09T23:37:01.387Z,88.66
2022-12-09T23:39:29.735Z,88.06
2022-12-09T23:41:59.429Z,88.16
2022-12-09T23:44:27.705Z,88.07
2022-12-09T23:46:55.947Z,87.84
2022-12-09T23:49:24.514Z,87.58
2022-12-09T23:51:52.787Z,88.12
2022-12-09T23:54:21.052Z,88.12
2022-12-09T23:56:50.667Z,88.00
2022-12-09T23:59:23.075Z,88.18
